createdAt,value
2023-03-23T15:59:52.208Z,23.18
2023-03-23T16:02:21.396Z,23.20
2023-03-23T16:04:48.182Z,23.21
2023-03-23T16:07:14.638Z,23.22
2023-03-23T16:09:42.438Z,23.23
2023-03-23T16:12:13.313Z,23.24
2023-03-23T16:14:40.175Z,23.23
2023-03-23T16:17:06.564Z,23.25
2023-03-23T16:19:33.010Z,23.25
2023-03-23T16:21:59.337Z,23.26
2023-03-23T16:24:25.666Z,23.25
2023-03-23T16:26:52.214Z,23.33
2023-03-23T16:29:39.853Z,23.35
2023-03-23T16:32:04.874Z,23.37
2023-03-23T16:34:33.648Z,23.41
2023-03-23T16:37:00.129Z,23.47
2023-03-23T16:39:26.452Z,23.47
2023-03-23T16:41:52.774Z,23.42
2023-03-23T16:44:19.186Z,23.41
2023-03-23T16:46:45.492Z,23.44
2023-03-23T16:49:11.842Z,23.50
2023-03-23T16:51:38.165Z,23.52
2023-03-23T16:54:04.520Z,23.64
2023-03-23T16:56:30.892Z,23.78
2023-03-23T16:58:57.298Z,23.86
2023-03-23T17:01:23.672Z,23.89
2023-03-23T17:03:50.174Z,23.93
2023-03-23T17:06:16.554Z,23.93
2023-03-23T17:08:43.103Z,23.96
2023-03-23T17:11:10.250Z,23.94
2023-03-23T17:13:36.829Z,23.93
2023-03-23T17:16:03.164Z,23.93
2023-03-23T17:18:29.556Z,23.91
2023-03-23T17:20:55.875Z,23.92
2023-03-23T17:23:22.442Z,23.93
2023-03-23T17:25:48.751Z,23.91
2023-03-23T17:28:15.328Z,23.90
2023-03-23T17:30:42.205Z,23.86
2023-03-23T17:33:08.789Z,23.87
2023-03-23T17:35:35.130Z,23.84
2023-03-23T17:38:01.460Z,23.80
2023-03-23T17:40:27.795Z,23.77
2023-03-23T17:42:54.111Z,23.78
2023-03-23T17:45:20.568Z,23.80
2023-03-23T17:47:46.988Z,23.85
2023-03-23T17:50:13.408Z,23.86
2023-03-23T17:52:40.497Z,23.85
2023-03-23T17:55:06.956Z,23.84
2023-03-23T17:57:34.167Z,23.74
2023-03-23T18:00:00.590Z,23.73
2023-03-23T18:02:26.977Z,23.80
2023-03-23T18:04:56.245Z,23.90
2023-03-23T18:07:23.549Z,23.99
2023-03-23T18:09:50.537Z,24.10
2023-03-23T18:12:17.586Z,24.12
2023-03-23T18:14:44.043Z,24.14
2023-03-23T18:17:10.390Z,24.11
2023-03-23T18:19:37.005Z,24.15
2023-03-23T18:22:03.405Z,24.13
2023-03-23T18:24:29.754Z,24.12
2023-03-23T18:26:57.040Z,24.12
2023-03-23T18:29:23.457Z,24.12
2023-03-23T18:31:49.839Z,24.11
2023-03-23T18:34:16.501Z,24.10
2023-03-23T18:36:42.816Z,24.08
2023-03-23T18:39:10.736Z,24.06
2023-03-23T18:41:37.061Z,24.04
2023-03-23T18:44:03.445Z,24.01
2023-03-23T18:46:29.797Z,23.96
2023-03-23T18:48:56.211Z,23.89
2023-03-23T18:51:22.593Z,23.83
2023-03-23T18:53:48.982Z,23.82
2023-03-23T18:56:16.031Z,23.79
2023-03-23T18:58:42.459Z,23.75
2023-03-23T19:01:09.761Z,23.76
2023-03-23T19:03:36.200Z,23.73
2023-03-23T19:06:02.554Z,23.73
2023-03-23T19:08:29.103Z,23.71
2023-03-23T19:11:00.864Z,23.76
2023-03-23T19:13:27.930Z,23.83
2023-03-23T19:15:54.277Z,23.93
2023-03-23T19:18:20.641Z,23.94
2023-03-23T19:21:12.710Z,24.01
2023-03-23T19:23:34.727Z,24.07
2023-03-23T19:26:01.056Z,24.05
2023-03-23T19:30:57.246Z,24.09
2023-03-23T19:33:23.914Z,24.09
2023-03-23T19:36:05.802Z,24.15
2023-03-23T19:38:35.460Z,24.37
2023-03-23T19:41:03.871Z,24.63
2023-03-23T19:43:31.845Z,24.67
2023-03-23T19:45:58.155Z,24.78
2023-03-23T19:48:24.571Z,24.87
2023-03-23T19:50:52.716Z,24.97
2023-03-23T19:53:19.598Z,25.04
2023-03-23T19:55:46.350Z,25.10
2023-03-23T19:58:14.063Z,25.19
2023-03-23T20:00:40.516Z,25.22
2023-03-23T20:03:07.539Z,25.26
2023-03-23T20:05:35.148Z,25.26
2023-03-23T20:08:02.744Z,25.33
2023-03-23T20:10:30.041Z,25.35
2023-03-23T20:12:56.549Z,25.37
2023-03-23T20:15:23.124Z,25.38
2023-03-23T20:20:15.819Z,25.58
2023-03-23T20:22:42.482Z,25.65
2023-03-23T20:25:08.999Z,25.69
2023-03-23T20:27:35.510Z,25.69
2023-03-23T20:30:03.930Z,25.66
2023-03-23T20:32:32.427Z,25.64
2023-03-23T20:35:06.286Z,25.70
2023-03-23T20:37:34.441Z,25.63
2023-03-23T20:40:02.022Z,25.46
2023-03-23T20:42:29.461Z,25.48
2023-03-23T20:44:56.425Z,25.49
2023-03-23T20:47:22.907Z,25.45
2023-03-23T20:49:53.191Z,25.42
2023-03-23T20:52:20.213Z,25.34
2023-03-23T20:54:46.525Z,25.40
2023-03-23T20:57:13.362Z,25.35
2023-03-23T20:59:39.837Z,25.25
2023-03-23T21:02:06.310Z,25.17
2023-03-23T21:04:32.649Z,25.26
2023-03-23T21:07:00.446Z,25.21
2023-03-23T21:09:26.850Z,25.19
2023-03-23T21:11:53.368Z,25.20
2023-03-23T21:14:19.702Z,25.19
2023-03-23T21:16:46.336Z,25.16
2023-03-23T21:19:12.990Z,25.14
2023-03-23T21:21:55.642Z,25.14
2023-03-23T21:24:26.448Z,25.18
2023-03-23T21:26:53.499Z,25.10
2023-03-23T21:29:19.831Z,25.00
2023-03-23T21:31:48.541Z,25.01
2023-03-23T21:34:16.755Z,25.02
2023-03-23T21:36:43.084Z,24.92
2023-03-23T21:39:10.336Z,24.88
2023-03-23T21:41:42.529Z,24.96
2023-03-23T21:44:10.519Z,24.95
2023-03-23T21:46:38.145Z,24.95
2023-03-23T21:49:04.798Z,24.96
2023-03-23T21:51:31.781Z,24.97
2023-03-23T21:53:58.116Z,24.97
2023-03-23T21:56:24.979Z,24.95
2023-03-23T21:58:51.607Z,24.89
2023-03-23T22:01:19.193Z,24.89
2023-03-23T22:03:45.838Z,24.84
2023-03-23T22:06:16.014Z,24.80
2023-03-23T22:08:42.850Z,24.78
2023-03-23T22:11:16.731Z,24.78
2023-03-23T22:13:43.281Z,24.76
2023-03-23T22:16:13.434Z,24.74
2023-03-23T22:18:40.119Z,24.74
2023-03-23T22:21:06.872Z,24.72
2023-03-23T22:23:33.599Z,24.69
2023-03-23T22:25:59.933Z,24.67
2023-03-23T22:28:28.969Z,24.65
2023-03-23T22:30:59.110Z,24.64
2023-03-23T22:33:25.455Z,24.62
2023-03-23T22:35:51.940Z,24.63
2023-03-23T22:38:18.291Z,24.61
2023-03-23T22:40:44.881Z,24.57
2023-03-23T22:43:11.379Z,24.54
2023-03-23T22:45:37.730Z,24.52
2023-03-23T22:48:06.727Z,24.48
2023-03-23T22:50:33.180Z,24.45
2023-03-23T22:52:59.496Z,24.43
2023-03-23T22:55:26.922Z,24.38
2023-03-23T22:57:53.225Z,24.35
2023-03-23T23:00:19.556Z,24.28
2023-03-23T23:02:46.070Z,24.29
2023-03-23T23:05:13.110Z,24.27
2023-03-23T23:07:39.439Z,24.24
2023-03-23T23:10:05.986Z,24.22
2023-03-23T23:12:34.953Z,24.19
2023-03-23T23:15:02.658Z,24.16
2023-03-23T23:17:31.687Z,24.13
2023-03-23T23:19:58.829Z,24.12
2023-03-23T23:22:25.328Z,24.10
2023-03-23T23:24:51.791Z,24.07
2023-03-23T23:27:18.230Z,24.04
2023-03-23T23:29:44.850Z,24.03
2023-03-23T23:32:11.208Z,24.01
2023-03-23T23:34:37.705Z,24.00
2023-03-23T23:37:04.118Z,23.98
2023-03-23T23:39:30.450Z,23.97
2023-03-23T23:41:56.758Z,23.94
2023-03-23T23:44:23.121Z,23.94
2023-03-23T23:46:49.445Z,23.92
2023-03-23T23:49:15.805Z,23.90
2023-03-23T23:51:42.142Z,23.89
2023-03-23T23:54:09.057Z,23.86
2023-03-23T23:56:36.003Z,23.82
2023-03-23T23:59:02.438Z,23.81
